Terminal Aerodrome Forecast
Issued by NWS

Home | Current Version | Previous Version | Text Only | Print | Product List | Glossary On
Versions: 1 2 3 4 5 6 7 8 9 10 11 12
000
FTUS44 KEPZ 292300 RRA
TAFTCS
TAF
KTCS 292335Z 3000/3024 16011KT P6SM SCT110 BKN250
     FM300400 34007KT P6SM FEW110 FEW250
     FM301000 02014KT P6SM SKC
     FM302100 07009KT P6SM SCT060 BKN110 OVC250=

USA.gov is the U.S. government's official web portal to all federal, state and local government web resources and services.